sensor_id;sensor_type;location;lat;lon;timestamp;temperature;humidity
55121;DHT22;41019;48.512;9.036;2023-02-28T00:01:22;0.10;66.10
55121;DHT22;41019;48.512;9.036;2023-02-28T00:03:48;0.10;66.30
55121;DHT22;41019;48.512;9.036;2023-02-28T00:06:15;0.10;66.40
55121;DHT22;41019;48.512;9.036;2023-02-28T00:08:41;0.10;66.50
55121;DHT22;41019;48.512;9.036;2023-02-28T00:11:09;0.10;66.60
55121;DHT22;41019;48.512;9.036;2023-02-28T00:13:38;0.10;66.70
55121;DHT22;41019;48.512;9.036;2023-02-28T00:16:11;0.00;66.90
55121;DHT22;41019;48.512;9.036;2023-02-28T00:18:37;0.00;66.90
55121;DHT22;41019;48.512;9.036;2023-02-28T00:21:04;0.10;67.10
55121;DHT22;41019;48.512;9.036;2023-02-28T00:23:30;0.10;67.30
55121;DHT22;41019;48.512;9.036;2023-02-28T00:25:56;0.00;67.50
55121;DHT22;41019;48.512;9.036;2023-02-28T00:28:22;0.00;67.50
55121;DHT22;41019;48.512;9.036;2023-02-28T00:30:49;0.10;67.50
55121;DHT22;41019;48.512;9.036;2023-02-28T00:33:16;0.00;67.60
55121;DHT22;41019;48.512;9.036;2023-02-28T00:35:42;0.00;67.60
55121;DHT22;41019;48.512;9.036;2023-02-28T00:38:08;0.00;67.80
55121;DHT22;41019;48.512;9.036;2023-02-28T00:40:34;0.00;67.90
55121;DHT22;41019;48.512;9.036;2023-02-28T00:43:00;0.00;67.90
55121;DHT22;41019;48.512;9.036;2023-02-28T00:45:26;0.00;68.00
55121;DHT22;41019;48.512;9.036;2023-02-28T00:47:52;0.00;68.20
55121;DHT22;41019;48.512;9.036;2023-02-28T00:50:19;-0.10;68.20
55121;DHT22;41019;48.512;9.036;2023-02-28T00:52:46;-0.10;68.30
55121;DHT22;41019;48.512;9.036;2023-02-28T00:55:13;-0.10;68.40
55121;DHT22;41019;48.512;9.036;2023-02-28T00:57:39;-0.10;68.50
55121;DHT22;41019;48.512;9.036;2023-02-28T01:00:06;0.00;68.40
55121;DHT22;41019;48.512;9.036;2023-02-28T01:02:32;0.00;68.60
55121;DHT22;41019;48.512;9.036;2023-02-28T01:04:59;0.00;68.70
55121;DHT22;41019;48.512;9.036;2023-02-28T01:07:25;-0.10;68.70
55121;DHT22;41019;48.512;9.036;2023-02-28T01:09:50;-0.10;69.00
55121;DHT22;41019;48.512;9.036;2023-02-28T01:12:17;-0.10;69.10
55121;DHT22;41019;48.512;9.036;2023-02-28T01:14:42;-0.10;69.10
55121;DHT22;41019;48.512;9.036;2023-02-28T01:17:09;-0.10;69.20
55121;DHT22;41019;48.512;9.036;2023-02-28T01:19:35;-0.10;69.30
55121;DHT22;41019;48.512;9.036;2023-02-28T01:22:04;-0.10;69.40
55121;DHT22;41019;48.512;9.036;2023-02-28T01:24:30;-0.10;69.40
55121;DHT22;41019;48.512;9.036;2023-02-28T01:26:56;-0.10;69.80
55121;DHT22;41019;48.512;9.036;2023-02-28T01:29:22;-0.10;69.80
55121;DHT22;41019;48.512;9.036;2023-02-28T01:31:48;-0.20;70.00
55121;DHT22;41019;48.512;9.036;2023-02-28T01:34:14;-0.20;70.10
55121;DHT22;41019;48.512;9.036;2023-02-28T01:36:40;-0.20;70.10
55121;DHT22;41019;48.512;9.036;2023-02-28T01:39:06;-0.20;70.20
55121;DHT22;41019;48.512;9.036;2023-02-28T01:41:34;-0.20;70.50
55121;DHT22;41019;48.512;9.036;2023-02-28T01:47:03;-0.20;70.70
55121;DHT22;41019;48.512;9.036;2023-02-28T01:49:29;-0.20;70.90
55121;DHT22;41019;48.512;9.036;2023-02-28T01:51:57;-0.30;70.90
55121;DHT22;41019;48.512;9.036;2023-02-28T01:54:29;-0.30;71.10
55121;DHT22;41019;48.512;9.036;2023-02-28T01:57:06;-0.20;71.10
55121;DHT22;41019;48.512;9.036;2023-02-28T01:59:42;-0.30;71.70
55121;DHT22;41019;48.512;9.036;2023-02-28T02:02:13;-0.30;71.40
55121;DHT22;41019;48.512;9.036;2023-02-28T02:04:50;-0.30;71.80
55121;DHT22;41019;48.512;9.036;2023-02-28T02:07:17;-0.30;72.10
55121;DHT22;41019;48.512;9.036;2023-02-28T02:09:44;-0.30;72.20
55121;DHT22;41019;48.512;9.036;2023-02-28T02:15:33;-0.30;72.50
55121;DHT22;41019;48.512;9.036;2023-02-28T02:18:25;-0.30;72.90
55121;DHT22;41019;48.512;9.036;2023-02-28T02:21:13;-0.30;73.00
55121;DHT22;41019;48.512;9.036;2023-02-28T02:27:25;-0.30;73.50
55121;DHT22;41019;48.512;9.036;2023-02-28T02:30:08;-0.30;73.40
55121;DHT22;41019;48.512;9.036;2023-02-28T02:40:23;-0.40;74.30
55121;DHT22;41019;48.512;9.036;2023-02-28T02:42:58;-0.40;74.60
55121;DHT22;41019;48.512;9.036;2023-02-28T02:45:57;-0.40;74.60
55121;DHT22;41019;48.512;9.036;2023-02-28T02:48:26;-0.40;74.60
55121;DHT22;41019;48.512;9.036;2023-02-28T02:51:00;-0.30;74.80
55121;DHT22;41019;48.512;9.036;2023-02-28T02:53:35;-0.40;74.90
55121;DHT22;41019;48.512;9.036;2023-02-28T02:56:03;-0.30;75.00
55121;DHT22;41019;48.512;9.036;2023-02-28T02:58:40;-0.40;75.20
55121;DHT22;41019;48.512;9.036;2023-02-28T03:01:18;-0.40;75.30
55121;DHT22;41019;48.512;9.036;2023-02-28T03:04:10;-0.40;75.50
55121;DHT22;41019;48.512;9.036;2023-02-28T03:06:37;-0.40;75.70
55121;DHT22;41019;48.512;9.036;2023-02-28T03:09:04;-0.40;75.80
55121;DHT22;41019;48.512;9.036;2023-02-28T03:11:30;-0.30;75.80
55121;DHT22;41019;48.512;9.036;2023-02-28T03:17:23;-0.30;76.00
55121;DHT22;41019;48.512;9.036;2023-02-28T03:22:45;-0.30;76.20
55121;DHT22;41019;48.512;9.036;2023-02-28T03:33:25;-0.20;76.50
55121;DHT22;41019;48.512;9.036;2023-02-28T03:35:59;-0.20;76.40
55121;DHT22;41019;48.512;9.036;2023-02-28T03:41:17;-0.10;76.90
55121;DHT22;41019;48.512;9.036;2023-02-28T03:44:03;-0.10;76.70
55121;DHT22;41019;48.512;9.036;2023-02-28T03:46:39;-0.20;76.80
55121;DHT22;41019;48.512;9.036;2023-02-28T03:49:20;-0.10;77.00
55121;DHT22;41019;48.512;9.036;2023-02-28T03:51:50;-0.10;77.20
55121;DHT22;41019;48.512;9.036;2023-02-28T03:54:23;-0.20;77.30
55121;DHT22;41019;48.512;9.036;2023-02-28T03:56:58;-0.20;77.50
55121;DHT22;41019;48.512;9.036;2023-02-28T03:59:47;-0.10;77.60
55121;DHT22;41019;48.512;9.036;2023-02-28T04:02:15;-0.20;77.80
55121;DHT22;41019;48.512;9.036;2023-02-28T04:04:41;-0.20;77.90
55121;DHT22;41019;48.512;9.036;2023-02-28T04:07:11;-0.10;78.00
55121;DHT22;41019;48.512;9.036;2023-02-28T04:09:38;-0.10;77.90
55121;DHT22;41019;48.512;9.036;2023-02-28T04:12:04;-0.10;78.00
55121;DHT22;41019;48.512;9.036;2023-02-28T04:14:30;-0.10;78.20
55121;DHT22;41019;48.512;9.036;2023-02-28T04:16:56;-0.10;78.40
55121;DHT22;41019;48.512;9.036;2023-02-28T04:19:22;-0.10;78.60
55121;DHT22;41019;48.512;9.036;2023-02-28T04:21:53;-0.10;78.80
55121;DHT22;41019;48.512;9.036;2023-02-28T04:24:22;-0.10;78.60
55121;DHT22;41019;48.512;9.036;2023-02-28T04:26:51;-0.10;79.00
55121;DHT22;41019;48.512;9.036;2023-02-28T04:31:48;-0.10;79.30
55121;DHT22;41019;48.512;9.036;2023-02-28T04:34:14;-0.10;79.30
55121;DHT22;41019;48.512;9.036;2023-02-28T04:36:40;-0.10;79.60
55121;DHT22;41019;48.512;9.036;2023-02-28T04:39:06;-0.10;79.90
55121;DHT22;41019;48.512;9.036;2023-02-28T04:41:33;-0.10;80.00
55121;DHT22;41019;48.512;9.036;2023-02-28T04:43:59;-0.10;80.10
55121;DHT22;41019;48.512;9.036;2023-02-28T04:46:25;0.00;80.30
55121;DHT22;41019;48.512;9.036;2023-02-28T04:48:51;-0.10;80.40
55121;DHT22;41019;48.512;9.036;2023-02-28T04:51:18;-0.10;80.50
55121;DHT22;41019;48.512;9.036;2023-02-28T04:53:45;-0.10;80.60
55121;DHT22;41019;48.512;9.036;2023-02-28T04:56:15;0.00;80.60
55121;DHT22;41019;48.512;9.036;2023-02-28T04:58:42;-0.10;80.90
55121;DHT22;41019;48.512;9.036;2023-02-28T05:01:26;0.00;81.30
55121;DHT22;41019;48.512;9.036;2023-02-28T05:03:56;0.00;81.70
55121;DHT22;41019;48.512;9.036;2023-02-28T05:06:24;0.00;82.00
55121;DHT22;41019;48.512;9.036;2023-02-28T05:08:51;0.00;82.10
55121;DHT22;41019;48.512;9.036;2023-02-28T05:11:28;0.00;82.40
55121;DHT22;41019;48.512;9.036;2023-02-28T05:13:55;0.00;82.40
55121;DHT22;41019;48.512;9.036;2023-02-28T05:16:21;0.00;82.70
55121;DHT22;41019;48.512;9.036;2023-02-28T05:18:47;0.00;82.80
55121;DHT22;41019;48.512;9.036;2023-02-28T05:23:52;0.00;83.20
55121;DHT22;41019;48.512;9.036;2023-02-28T05:26:18;0.00;83.10
55121;DHT22;41019;48.512;9.036;2023-02-28T05:28:45;0.00;83.30
55121;DHT22;41019;48.512;9.036;2023-02-28T05:31:11;0.00;83.40
55121;DHT22;41019;48.512;9.036;2023-02-28T05:33:37;0.00;83.80
55121;DHT22;41019;48.512;9.036;2023-02-28T05:36:03;0.00;84.00
55121;DHT22;41019;48.512;9.036;2023-02-28T05:38:30;0.00;84.60
55121;DHT22;41019;48.512;9.036;2023-02-28T05:40:56;0.00;84.80
55121;DHT22;41019;48.512;9.036;2023-02-28T05:43:22;-0.10;84.80
55121;DHT22;41019;48.512;9.036;2023-02-28T05:45:48;0.00;85.00
55121;DHT22;41019;48.512;9.036;2023-02-28T05:48:14;0.00;85.10
55121;DHT22;41019;48.512;9.036;2023-02-28T05:50:40;0.00;85.30
55121;DHT22;41019;48.512;9.036;2023-02-28T05:53:06;0.00;85.20
55121;DHT22;41019;48.512;9.036;2023-02-28T05:55:32;-0.10;85.40
55121;DHT22;41019;48.512;9.036;2023-02-28T05:57:58;0.00;85.60
55121;DHT22;41019;48.512;9.036;2023-02-28T06:00:25;0.00;85.30
55121;DHT22;41019;48.512;9.036;2023-02-28T06:02:51;0.00;85.40
55121;DHT22;41019;48.512;9.036;2023-02-28T06:05:19;0.00;85.70
55121;DHT22;41019;48.512;9.036;2023-02-28T06:07:45;0.00;85.30
55121;DHT22;41019;48.512;9.036;2023-02-28T06:10:11;0.00;85.70
55121;DHT22;41019;48.512;9.036;2023-02-28T06:12:38;0.00;85.60
55121;DHT22;41019;48.512;9.036;2023-02-28T06:15:05;0.00;85.70
55121;DHT22;41019;48.512;9.036;2023-02-28T06:17:30;0.00;85.60
55121;DHT22;41019;48.512;9.036;2023-02-28T06:19:57;0.00;85.20
55121;DHT22;41019;48.512;9.036;2023-02-28T06:22:23;0.00;85.10
55121;DHT22;41019;48.512;9.036;2023-02-28T06:24:48;0.10;85.20
55121;DHT22;41019;48.512;9.036;2023-02-28T06:27:15;0.10;85.00
55121;DHT22;41019;48.512;9.036;2023-02-28T06:29:41;0.00;85.00
55121;DHT22;41019;48.512;9.036;2023-02-28T06:32:08;0.00;85.20
55121;DHT22;41019;48.512;9.036;2023-02-28T06:34:35;0.10;84.70
55121;DHT22;41019;48.512;9.036;2023-02-28T06:37:02;0.10;84.70
55121;DHT22;41019;48.512;9.036;2023-02-28T06:39:29;0.10;84.60
55121;DHT22;41019;48.512;9.036;2023-02-28T06:41:55;0.20;84.40
55121;DHT22;41019;48.512;9.036;2023-02-28T06:44:23;0.20;83.90
55121;DHT22;41019;48.512;9.036;2023-02-28T06:46:49;0.20;84.20
55121;DHT22;41019;48.512;9.036;2023-02-28T06:49:15;0.20;83.60
55121;DHT22;41019;48.512;9.036;2023-02-28T06:51:43;0.10;83.80
55121;DHT22;41019;48.512;9.036;2023-02-28T06:54:11;0.20;83.30
55121;DHT22;41019;48.512;9.036;2023-02-28T06:56:37;0.20;83.60
55121;DHT22;41019;48.512;9.036;2023-02-28T06:59:04;0.20;83.40
55121;DHT22;41019;48.512;9.036;2023-02-28T07:01:30;0.20;83.00
55121;DHT22;41019;48.512;9.036;2023-02-28T07:03:57;0.20;83.00
55121;DHT22;41019;48.512;9.036;2023-02-28T07:06:23;0.20;82.90
55121;DHT22;41019;48.512;9.036;2023-02-28T07:08:51;0.30;83.00
55121;DHT22;41019;48.512;9.036;2023-02-28T07:11:18;0.40;82.80
55121;DHT22;41019;48.512;9.036;2023-02-28T07:13:45;0.30;82.50
55121;DHT22;41019;48.512;9.036;2023-02-28T07:16:12;0.40;82.00
55121;DHT22;41019;48.512;9.036;2023-02-28T07:18:38;0.40;82.00
55121;DHT22;41019;48.512;9.036;2023-02-28T07:21:07;0.40;81.80
55121;DHT22;41019;48.512;9.036;2023-02-28T07:23:33;0.40;81.50
55121;DHT22;41019;48.512;9.036;2023-02-28T07:25:59;0.50;81.30
55121;DHT22;41019;48.512;9.036;2023-02-28T07:28:26;0.50;81.20
55121;DHT22;41019;48.512;9.036;2023-02-28T07:30:52;0.60;81.40
55121;DHT22;41019;48.512;9.036;2023-02-28T07:33:18;0.60;81.10
55121;DHT22;41019;48.512;9.036;2023-02-28T07:35:44;0.60;81.00
55121;DHT22;41019;48.512;9.036;2023-02-28T07:38:10;0.70;80.60
55121;DHT22;41019;48.512;9.036;2023-02-28T07:40:36;0.70;80.40
55121;DHT22;41019;48.512;9.036;2023-02-28T07:43:03;0.80;80.50
55121;DHT22;41019;48.512;9.036;2023-02-28T07:45:30;0.70;80.10
55121;DHT22;41019;48.512;9.036;2023-02-28T07:47:57;0.70;80.30
55121;DHT22;41019;48.512;9.036;2023-02-28T07:50:23;0.70;80.20
55121;DHT22;41019;48.512;9.036;2023-02-28T07:52:49;0.70;80.10
55121;DHT22;41019;48.512;9.036;2023-02-28T07:55:15;0.70;80.20
55121;DHT22;41019;48.512;9.036;2023-02-28T07:57:42;0.80;80.00
55121;DHT22;41019;48.512;9.036;2023-02-28T08:00:11;0.80;80.10
55121;DHT22;41019;48.512;9.036;2023-02-28T08:02:39;0.90;80.40
55121;DHT22;41019;48.512;9.036;2023-02-28T08:05:07;0.90;79.90
55121;DHT22;41019;48.512;9.036;2023-02-28T08:07:33;0.90;80.10
55121;DHT22;41019;48.512;9.036;2023-02-28T08:09:59;1.00;79.60
55121;DHT22;41019;48.512;9.036;2023-02-28T08:12:25;0.90;79.30
55121;DHT22;41019;48.512;9.036;2023-02-28T08:14:52;1.00;79.30
55121;DHT22;41019;48.512;9.036;2023-02-28T08:17:17;0.90;79.30
55121;DHT22;41019;48.512;9.036;2023-02-28T08:19:46;1.00;79.30
55121;DHT22;41019;48.512;9.036;2023-02-28T08:22:13;0.90;79.10
55121;DHT22;41019;48.512;9.036;2023-02-28T08:24:41;1.00;79.30
55121;DHT22;41019;48.512;9.036;2023-02-28T08:27:09;1.00;79.20
55121;DHT22;41019;48.512;9.036;2023-02-28T08:29:37;1.00;79.00
55121;DHT22;41019;48.512;9.036;2023-02-28T08:32:04;1.00;79.10
55121;DHT22;41019;48.512;9.036;2023-02-28T08:34:30;1.10;79.00
55121;DHT22;41019;48.512;9.036;2023-02-28T08:36:56;1.10;78.90
55121;DHT22;41019;48.512;9.036;2023-02-28T08:39:22;1.00;78.50
55121;DHT22;41019;48.512;9.036;2023-02-28T08:41:48;1.20;78.50
55121;DHT22;41019;48.512;9.036;2023-02-28T08:44:14;1.10;78.30
55121;DHT22;41019;48.512;9.036;2023-02-28T08:46:40;1.10;78.20
55121;DHT22;41019;48.512;9.036;2023-02-28T08:49:05;1.20;78.20
55121;DHT22;41019;48.512;9.036;2023-02-28T08:51:32;1.20;78.00
55121;DHT22;41019;48.512;9.036;2023-02-28T08:54:00;1.30;77.80
55121;DHT22;41019;48.512;9.036;2023-02-28T08:56:28;1.30;77.50
55121;DHT22;41019;48.512;9.036;2023-02-28T08:58:56;1.40;77.10
55121;DHT22;41019;48.512;9.036;2023-02-28T09:01:26;1.40;77.10
55121;DHT22;41019;48.512;9.036;2023-02-28T09:03:56;1.40;76.90
55121;DHT22;41019;48.512;9.036;2023-02-28T09:06:25;1.50;76.90
55121;DHT22;41019;48.512;9.036;2023-02-28T09:08:52;1.50;75.80
55121;DHT22;41019;48.512;9.036;2023-02-28T09:11:19;1.60;76.10
55121;DHT22;41019;48.512;9.036;2023-02-28T09:13:45;1.60;75.20
55121;DHT22;41019;48.512;9.036;2023-02-28T09:16:14;1.60;74.60
55121;DHT22;41019;48.512;9.036;2023-02-28T09:18:42;1.60;74.50
55121;DHT22;41019;48.512;9.036;2023-02-28T09:21:13;1.70;74.30
55121;DHT22;41019;48.512;9.036;2023-02-28T09:23:45;1.70;74.20
55121;DHT22;41019;48.512;9.036;2023-02-28T09:26:23;1.80;74.10
55121;DHT22;41019;48.512;9.036;2023-02-28T09:28:50;1.90;73.40
55121;DHT22;41019;48.512;9.036;2023-02-28T09:31:20;1.90;73.70
55121;DHT22;41019;48.512;9.036;2023-02-28T09:33:49;1.90;73.10
55121;DHT22;41019;48.512;9.036;2023-02-28T09:36:16;2.00;73.80
55121;DHT22;41019;48.512;9.036;2023-02-28T09:38:41;2.10;73.00
55121;DHT22;41019;48.512;9.036;2023-02-28T09:41:21;2.20;72.70
55121;DHT22;41019;48.512;9.036;2023-02-28T09:43:55;2.10;72.10
55121;DHT22;41019;48.512;9.036;2023-02-28T09:46:30;2.10;72.20
55121;DHT22;41019;48.512;9.036;2023-02-28T09:49:02;2.10;72.10
55121;DHT22;41019;48.512;9.036;2023-02-28T09:51:46;2.10;72.20
55121;DHT22;41019;48.512;9.036;2023-02-28T09:54:20;2.30;71.80
55121;DHT22;41019;48.512;9.036;2023-02-28T09:56:58;2.30;71.80
55121;DHT22;41019;48.512;9.036;2023-02-28T10:04:50;2.40;71.10
55121;DHT22;41019;48.512;9.036;2023-02-28T10:10:20;2.50;71.70
55121;DHT22;41019;48.512;9.036;2023-02-28T10:12:49;2.70;71.10
55121;DHT22;41019;48.512;9.036;2023-02-28T10:15:17;2.80;70.20
55121;DHT22;41019;48.512;9.036;2023-02-28T10:17:49;2.90;70.30
55121;DHT22;41019;48.512;9.036;2023-02-28T10:20:22;2.90;70.50
55121;DHT22;41019;48.512;9.036;2023-02-28T10:23:20;3.10;70.00
55121;DHT22;41019;48.512;9.036;2023-02-28T10:25:59;3.20;69.20
55121;DHT22;41019;48.512;9.036;2023-02-28T10:28:27;3.30;68.60
55121;DHT22;41019;48.512;9.036;2023-02-28T10:30:55;3.20;68.40
55121;DHT22;41019;48.512;9.036;2023-02-28T10:33:30;3.30;68.70
55121;DHT22;41019;48.512;9.036;2023-02-28T10:36:01;3.30;69.50
55121;DHT22;41019;48.512;9.036;2023-02-28T10:38:34;3.40;68.40
55121;DHT22;41019;48.512;9.036;2023-02-28T10:41:09;3.50;68.80
55121;DHT22;41019;48.512;9.036;2023-02-28T10:43:37;3.60;68.30
55121;DHT22;41019;48.512;9.036;2023-02-28T10:49:00;3.60;67.60
55121;DHT22;41019;48.512;9.036;2023-02-28T10:51:36;3.70;67.50
55121;DHT22;41019;48.512;9.036;2023-02-28T10:54:03;3.80;67.20
55121;DHT22;41019;48.512;9.036;2023-02-28T10:56:29;3.80;66.90
55121;DHT22;41019;48.512;9.036;2023-02-28T11:07:21;3.90;67.10
55121;DHT22;41019;48.512;9.036;2023-02-28T11:09:53;3.80;65.80
55121;DHT22;41019;48.512;9.036;2023-02-28T11:14:59;3.90;67.30
55121;DHT22;41019;48.512;9.036;2023-02-28T11:17:29;4.00;66.50
55121;DHT22;41019;48.512;9.036;2023-02-28T11:20:05;4.10;65.50
55121;DHT22;41019;48.512;9.036;2023-02-28T11:22:39;4.10;65.30
55121;DHT22;41019;48.512;9.036;2023-02-28T11:25:28;4.20;65.00
55121;DHT22;41019;48.512;9.036;2023-02-28T11:27:59;4.30;65.30
55121;DHT22;41019;48.512;9.036;2023-02-28T11:30:37;4.40;65.20
55121;DHT22;41019;48.512;9.036;2023-02-28T11:36:01;4.40;64.90
55121;DHT22;41019;48.512;9.036;2023-02-28T11:38:28;4.60;64.40
55121;DHT22;41019;48.512;9.036;2023-02-28T11:48:53;5.00;63.80
55121;DHT22;41019;48.512;9.036;2023-02-28T11:54:08;5.40;62.30
55121;DHT22;41019;48.512;9.036;2023-02-28T11:56:46;5.60;62.50
55121;DHT22;41019;48.512;9.036;2023-02-28T12:05:21;6.20;60.00
55121;DHT22;41019;48.512;9.036;2023-02-28T12:10:28;6.50;58.30
55121;DHT22;41019;48.512;9.036;2023-02-28T12:13:21;6.70;59.00
55121;DHT22;41019;48.512;9.036;2023-02-28T12:16:43;6.70;58.40
55121;DHT22;41019;48.512;9.036;2023-02-28T12:26:58;7.20;55.90
55121;DHT22;41019;48.512;9.036;2023-02-28T12:29:29;7.10;55.20
55121;DHT22;41019;48.512;9.036;2023-02-28T12:32:09;6.60;55.90
55121;DHT22;41019;48.512;9.036;2023-02-28T12:34:47;6.60;56.30
55121;DHT22;41019;48.512;9.036;2023-02-28T12:37:28;6.40;56.70
55121;DHT22;41019;48.512;9.036;2023-02-28T12:40:02;6.30;56.70
55121;DHT22;41019;48.512;9.036;2023-02-28T12:42:40;6.10;57.20
55121;DHT22;41019;48.512;9.036;2023-02-28T12:47:55;6.20;57.60
55121;DHT22;41019;48.512;9.036;2023-02-28T12:50:24;6.00;57.50
55121;DHT22;41019;48.512;9.036;2023-02-28T12:56:07;5.70;58.20
55121;DHT22;41019;48.512;9.036;2023-02-28T12:58:48;5.60;58.60
55121;DHT22;41019;48.512;9.036;2023-02-28T13:02:00;5.70;59.30
55121;DHT22;41019;48.512;9.036;2023-02-28T13:10:04;6.00;58.40
55121;DHT22;41019;48.512;9.036;2023-02-28T13:12:30;6.00;57.90
55121;DHT22;41019;48.512;9.036;2023-02-28T13:15:24;6.20;58.20
55121;DHT22;41019;48.512;9.036;2023-02-28T13:17:54;6.20;57.40
55121;DHT22;41019;48.512;9.036;2023-02-28T13:20:28;6.40;56.70
55121;DHT22;41019;48.512;9.036;2023-02-28T13:22:55;6.60;57.30
55121;DHT22;41019;48.512;9.036;2023-02-28T13:27:53;6.80;56.90
55121;DHT22;41019;48.512;9.036;2023-02-28T13:33:31;7.00;56.60
55121;DHT22;41019;48.512;9.036;2023-02-28T13:36:26;7.00;56.50
55121;DHT22;41019;48.512;9.036;2023-02-28T13:39:00;6.80;56.00
55121;DHT22;41019;48.512;9.036;2023-02-28T13:46:27;6.80;56.60
55121;DHT22;41019;48.512;9.036;2023-02-28T13:48:54;6.80;56.60
55121;DHT22;41019;48.512;9.036;2023-02-28T13:51:47;6.90;57.00
55121;DHT22;41019;48.512;9.036;2023-02-28T14:05:21;6.90;56.20
55121;DHT22;41019;48.512;9.036;2023-02-28T14:08:03;7.00;56.80
55121;DHT22;41019;48.512;9.036;2023-02-28T14:10:35;6.90;56.00
55121;DHT22;41019;48.512;9.036;2023-02-28T14:16:13;6.80;56.30
55121;DHT22;41019;48.512;9.036;2023-02-28T14:18:51;6.80;57.00
55121;DHT22;41019;48.512;9.036;2023-02-28T14:21:29;6.70;56.30
55121;DHT22;41019;48.512;9.036;2023-02-28T14:24:39;6.60;56.60
55121;DHT22;41019;48.512;9.036;2023-02-28T14:27:30;6.70;56.90
55121;DHT22;41019;48.512;9.036;2023-02-28T14:30:26;6.60;57.10
55121;DHT22;41019;48.512;9.036;2023-02-28T14:36:21;6.70;57.10
55121;DHT22;41019;48.512;9.036;2023-02-28T14:38:57;6.70;57.10
55121;DHT22;41019;48.512;9.036;2023-02-28T14:41:32;6.70;57.20
55121;DHT22;41019;48.512;9.036;2023-02-28T14:44:02;6.80;57.00
55121;DHT22;41019;48.512;9.036;2023-02-28T14:46:36;6.70;56.40
55121;DHT22;41019;48.512;9.036;2023-02-28T14:49:15;6.70;56.70
55121;DHT22;41019;48.512;9.036;2023-02-28T14:51:42;6.70;56.60
55121;DHT22;41019;48.512;9.036;2023-02-28T14:54:15;6.70;56.80
55121;DHT22;41019;48.512;9.036;2023-02-28T14:56:41;6.70;56.80
55121;DHT22;41019;48.512;9.036;2023-02-28T14:59:32;6.70;56.80
55121;DHT22;41019;48.512;9.036;2023-02-28T15:02:18;6.70;56.70
55121;DHT22;41019;48.512;9.036;2023-02-28T15:04:56;6.70;56.90
55121;DHT22;41019;48.512;9.036;2023-02-28T15:07:23;6.70;57.00
55121;DHT22;41019;48.512;9.036;2023-02-28T15:10:10;6.80;56.90
55121;DHT22;41019;48.512;9.036;2023-02-28T15:12:37;6.80;57.10
55121;DHT22;41019;48.512;9.036;2023-02-28T15:15:06;6.70;56.50
55121;DHT22;41019;48.512;9.036;2023-02-28T15:17:35;6.70;56.70
55121;DHT22;41019;48.512;9.036;2023-02-28T15:20:01;6.60;56.40
55121;DHT22;41019;48.512;9.036;2023-02-28T15:22:35;6.60;56.60
55121;DHT22;41019;48.512;9.036;2023-02-28T15:25:09;6.60;56.50
55121;DHT22;41019;48.512;9.036;2023-02-28T15:27:45;6.70;56.70
55121;DHT22;41019;48.512;9.036;2023-02-28T15:30:21;6.70;56.40
55121;DHT22;41019;48.512;9.036;2023-02-28T15:33:31;6.70;56.30
55121;DHT22;41019;48.512;9.036;2023-02-28T15:36:11;6.70;56.60
55121;DHT22;41019;48.512;9.036;2023-02-28T15:38:38;6.80;56.40
55121;DHT22;41019;48.512;9.036;2023-02-28T15:41:04;6.70;55.80
55121;DHT22;41019;48.512;9.036;2023-02-28T15:43:38;6.60;55.90
55121;DHT22;41019;48.512;9.036;2023-02-28T15:46:11;6.60;56.80
55121;DHT22;41019;48.512;9.036;2023-02-28T15:48:50;6.60;56.30
55121;DHT22;41019;48.512;9.036;2023-02-28T15:51:35;6.50;56.50
55121;DHT22;41019;48.512;9.036;2023-02-28T15:54:06;6.50;56.90
55121;DHT22;41019;48.512;9.036;2023-02-28T15:56:38;6.50;57.00
55121;DHT22;41019;48.512;9.036;2023-02-28T15:59:06;6.40;57.00
55121;DHT22;41019;48.512;9.036;2023-02-28T16:01:35;6.30;57.40
55121;DHT22;41019;48.512;9.036;2023-02-28T16:04:22;6.30;57.50
55121;DHT22;41019;48.512;9.036;2023-02-28T16:09:24;6.20;57.60
55121;DHT22;41019;48.512;9.036;2023-02-28T16:11:54;6.10;57.80
55121;DHT22;41019;48.512;9.036;2023-02-28T16:14:25;6.10;57.70
55121;DHT22;41019;48.512;9.036;2023-02-28T16:17:03;6.10;58.00
55121;DHT22;41019;48.512;9.036;2023-02-28T16:19:31;6.10;57.90
55121;DHT22;41019;48.512;9.036;2023-02-28T16:21:57;6.00;58.00
55121;DHT22;41019;48.512;9.036;2023-02-28T16:24:23;6.00;58.00
55121;DHT22;41019;48.512;9.036;2023-02-28T16:26:53;5.90;58.10
55121;DHT22;41019;48.512;9.036;2023-02-28T16:29:26;5.90;58.30
55121;DHT22;41019;48.512;9.036;2023-02-28T16:31:54;5.80;58.50
55121;DHT22;41019;48.512;9.036;2023-02-28T16:34:21;5.70;58.70
55121;DHT22;41019;48.512;9.036;2023-02-28T16:36:48;5.70;58.80
55121;DHT22;41019;48.512;9.036;2023-02-28T16:39:14;5.70;58.90
55121;DHT22;41019;48.512;9.036;2023-02-28T16:41:45;5.60;59.10
55121;DHT22;41019;48.512;9.036;2023-02-28T16:44:33;5.50;59.20
55121;DHT22;41019;48.512;9.036;2023-02-28T16:47:03;5.50;59.20
55121;DHT22;41019;48.512;9.036;2023-02-28T16:49:30;5.50;59.50
55121;DHT22;41019;48.512;9.036;2023-02-28T16:51:56;5.50;59.70
55121;DHT22;41019;48.512;9.036;2023-02-28T16:54:21;5.40;59.80
55121;DHT22;41019;48.512;9.036;2023-02-28T16:56:48;5.40;59.80
55121;DHT22;41019;48.512;9.036;2023-02-28T16:59:19;5.30;60.00
55121;DHT22;41019;48.512;9.036;2023-02-28T17:01:47;5.30;60.20
55121;DHT22;41019;48.512;9.036;2023-02-28T17:04:13;5.20;60.40
55121;DHT22;41019;48.512;9.036;2023-02-28T17:06:41;5.20;60.60
55121;DHT22;41019;48.512;9.036;2023-02-28T17:09:19;5.10;60.80
55121;DHT22;41019;48.512;9.036;2023-02-28T17:11:46;5.10;61.00
55121;DHT22;41019;48.512;9.036;2023-02-28T17:14:13;5.00;61.00
55121;DHT22;41019;48.512;9.036;2023-02-28T17:16:41;5.00;61.30
55121;DHT22;41019;48.512;9.036;2023-02-28T17:19:15;4.90;61.30
55121;DHT22;41019;48.512;9.036;2023-02-28T17:21:42;4.90;61.70
55121;DHT22;41019;48.512;9.036;2023-02-28T17:24:09;4.80;62.00
55121;DHT22;41019;48.512;9.036;2023-02-28T17:26:40;4.80;62.00
55121;DHT22;41019;48.512;9.036;2023-02-28T17:29:15;4.70;62.40
55121;DHT22;41019;48.512;9.036;2023-02-28T17:31:42;4.70;62.50
55121;DHT22;41019;48.512;9.036;2023-02-28T17:34:07;4.60;62.60
55121;DHT22;41019;48.512;9.036;2023-02-28T17:36:34;4.50;62.80
55121;DHT22;41019;48.512;9.036;2023-02-28T17:39:02;4.50;62.90
55121;DHT22;41019;48.512;9.036;2023-02-28T17:41:28;4.50;63.10
55121;DHT22;41019;48.512;9.036;2023-02-28T17:43:56;4.50;63.50
55121;DHT22;41019;48.512;9.036;2023-02-28T17:46:25;4.40;63.70
55121;DHT22;41019;48.512;9.036;2023-02-28T17:48:53;4.30;63.90
55121;DHT22;41019;48.512;9.036;2023-02-28T17:51:23;4.20;64.60
55121;DHT22;41019;48.512;9.036;2023-02-28T17:53:50;4.20;64.40
55121;DHT22;41019;48.512;9.036;2023-02-28T17:56:20;4.10;64.60
55121;DHT22;41019;48.512;9.036;2023-02-28T17:59:10;4.00;64.80
55121;DHT22;41019;48.512;9.036;2023-02-28T18:01:37;4.00;65.00
55121;DHT22;41019;48.512;9.036;2023-02-28T18:04:05;4.00;64.90
55121;DHT22;41019;48.512;9.036;2023-02-28T18:06:43;3.90;65.10
55121;DHT22;41019;48.512;9.036;2023-02-28T18:09:21;3.90;65.10
55121;DHT22;41019;48.512;9.036;2023-02-28T18:11:48;3.80;65.20
55121;DHT22;41019;48.512;9.036;2023-02-28T18:14:21;3.80;65.30
55121;DHT22;41019;48.512;9.036;2023-02-28T18:16:50;3.80;65.50
55121;DHT22;41019;48.512;9.036;2023-02-28T18:19:16;3.80;65.60